Gao Qiang — VRVQ8 — position and weather

sailwx.info

Track history (hours):
 
Tides and Currents Weather Stations Pressure Air Temp Water Temp Dewpoint Dewpoint Depression Visibility Wind Speed Wind Dir Waves Ship Positions

Gao Qiang

Last reported at 2015-Apr-17 10:24 UTC. Time now 2015-Apr-19 17:38 UTC.
Position N 49°54' W 003°12'.

Length 186 m; draft 10 m.

Type: Cargo ship. MMSI: 477611000.

Date/timePositionNaut miles runAvg speedWind from/ knotsBaromVisibWave heightAir tempDewpointWater temp
2015-Apr-17 10:24N 49°54' W 003°12'1513.9
2015-Apr-17 09:19N 49°60' W 002°51'9811.9
2015-Apr-17 01:07N 50°25' W 000°23'2214.3
2015-Apr-16 23:33N 50°30' E 000°11'1313.5
2015-Apr-16 22:33N 50°34' E 000°31'1312.6
2015-Apr-16 21:33N 50°40' E 000°49'1212.1
2015-Apr-16 20:33N 50°47' E 001°04'1311.9
2015-Apr-16 19:29N 50°55' E 001°20'1415.2
2015-Apr-16 18:34N 51°06' E 001°35'1615.8
2015-Apr-16 17:33N 51°18' E 001°51'1212.0
2015-Apr-16 16:33N 51°23' E 002°09'1313.3
2015-Apr-16 15:34N 51°23' E 002°30'1212.2
2015-Apr-16 14:34N 51°22' E 002°50'1211.6
2015-Apr-16 13:33N 51°24' E 003°08'1211.8
2015-Apr-16 12:34N 51°25' E 003°27'9 9.3
2015-Apr-16 11:33N 51°26' E 003°42'7 7.5
2015-Apr-16 10:34N 51°20' E 003°49'1 0.7
2015-Apr-16 09:33N 51°19' E 003°50'3 2.8
2015-Apr-16 08:33N 51°16' E 003°50'4 4.4
2015-Apr-16 07:33N 51°12' E 003°48'5 4.6
2015-Apr-16 06:33N 51°08' E 003°46'2 2.4
2015-Apr-16 05:34N 51°05' E 003°44'0 0.0
2015-Apr-16 04:33N 51°06' E 003°44'0 0.0
2015-Apr-16 03:33N 51°06' E 003°44'0 0.0
2015-Apr-16 02:30N 51°06' E 003°44'0 0.0
2015-Apr-16 01:30N 51°06' E 003°44'0 0.0
2015-Apr-16 00:33N 51°06' E 003°44'0 0.0
2015-Apr-15 23:27N 51°06' E 003°44'0 0.0
2015-Apr-15 22:18N 51°05' E 003°44'0 0.0
2015-Apr-15 21:33N 51°06' E 003°44'0 0.0
2015-Apr-15 20:32N 51°06' E 003°44'0 0.0
2015-Apr-15 19:31N 51°06' E 003°44'0 0.0
2015-Apr-15 18:31N 51°05' E 003°44'0 0.0
2015-Apr-15 17:31N 51°05' E 003°44'0 0.0
2015-Apr-15 16:28N 51°06' E 003°44'0 0.0
2015-Apr-15 15:33N 51°06' E 003°44'0 0.0
2015-Apr-15 14:30N 51°05' E 003°44'0 0.0
2015-Apr-15 13:32N 51°05' E 003°44'0 0.0
2015-Apr-15 12:32N 51°06' E 003°44'0 0.0
2015-Apr-15 11:33N 51°05' E 003°44'0 0.0
2015-Apr-15 10:31N 51°05' E 003°44'0 0.0
2015-Apr-15 09:31N 51°05' E 003°44'0 0.0
2015-Apr-15 08:32N 51°05' E 003°44'0 0.0
2015-Apr-15 07:31N 51°05' E 003°44'0 0.0
2015-Apr-15 06:32N 51°05' E 003°44'0 0.0
2015-Apr-15 05:23N 51°05' E 003°44'0 0.0
2015-Apr-15 04:32N 51°06' E 003°44'0 0.0
2015-Apr-15 03:32N 51°05' E 003°44'0 0.0
2015-Apr-15 02:32N 51°05' E 003°44'0 0.0
2015-Apr-15 01:27N 51°05' E 003°44'0 0.0
2015-Apr-15 00:32N 51°05' E 003°44'0 0.0
2015-Apr-14 23:28N 51°05' E 003°44'0 0.0
2015-Apr-14 22:33N 51°05' E 003°44'0 0.0
2015-Apr-14 21:32N 51°06' E 003°44'0 0.0
2015-Apr-14 20:32N 51°05' E 003°44'0 0.0
2015-Apr-14 19:26N 51°06' E 003°44'0 0.0
2015-Apr-14 18:32N 51°06' E 003°44'0 0.0
2015-Apr-14 17:25N 51°06' E 003°44'0 0.0
2015-Apr-14 16:34N 51°05' E 003°44'0 0.0
2015-Apr-14 15:33N 51°05' E 003°44'0 0.0
2015-Apr-14 14:34N 51°05' E 003°44'0 0.0
2015-Apr-14 13:32N 51°05' E 003°44'0 0.0
2015-Apr-14 12:33N 51°05' E 003°44'0 0.0
2015-Apr-14 11:32N 51°06' E 003°44'0 0.0
2015-Apr-14 10:31N 51°06' E 003°44'0 0.0
2015-Apr-14 09:27N 51°06' E 003°44'0 0.0
2015-Apr-14 08:33N 51°05' E 003°44'0 0.0
2015-Apr-14 07:34N 51°06' E 003°44'0 0.0
2015-Apr-14 06:33N 51°06' E 003°44'0 0.0
2015-Apr-14 05:32N 51°06' E 003°44'0 0.0
2015-Apr-14 04:32N 51°06' E 003°44'0 0.0
2015-Apr-14 03:32N 51°05' E 003°44'0 0.0
2015-Apr-14 02:32N 51°06' E 003°44'0 0.0
2015-Apr-14 01:33N 51°06' E 003°44'0 0.0
2015-Apr-14 00:30N 51°06' E 003°44'0 0.0
2015-Apr-13 23:21N 51°05' E 003°44'0 0.0
2015-Apr-13 22:28N 51°05' E 003°44'0 0.0
2015-Apr-13 21:26N 51°06' E 003°44'0 0.0
2015-Apr-13 20:32N 51°06' E 003°44'0 0.0
2015-Apr-13 19:30N 51°05' E 003°44'0 0.0
2015-Apr-13 18:31N 51°05' E 003°44'0 0.0
2015-Apr-13 17:33N 51°05' E 003°44'4 3.9
2015-Apr-13 16:33N 51°09' E 003°47'7 6.8
2015-Apr-13 15:34N 51°16' E 003°50'4 4.0
2015-Apr-13 14:34N 51°20' E 003°49'2 2.1
2015-Apr-13 13:33N 51°21' E 003°47'7 6.8
2015-Apr-13 12:33N 51°26' E 003°40'6 6.4
2015-Apr-13 11:33N 51°25' E 003°30'9 9.5
2015-Apr-13 10:33N 51°25' E 003°14'1110.6
2015-Apr-13 09:33N 51°23' E 002°58'10 9.6
2015-Apr-13 08:33N 51°22' E 002°42'4 3.7
2015-Apr-13 07:33N 51°22' E 002°36'2 2.1
2015-Apr-13 06:33N 51°22' E 002°33'3 3.4
2015-Apr-13 05:33N 51°21' E 002°28'1212.5
2015-Apr-13 04:33N 51°15' E 002°10'1211.9
2015-Apr-13 03:33N 51°10' E 001°53'1111.1
2015-Apr-13 02:33N 51°02' E 001°40'1010.5
2015-Apr-13 01:33N 50°55' E 001°29'1410.6
2015-Apr-13 00:13N 50°41' E 001°20'1011.4
2015-Apr-12 23:21N 50°35' E 001°09'2311.5
2015-Apr-12 21:19N 50°26' E 000°35'911.8
2015-Apr-12 20:33N 50°23' E 000°21'6212.3
2015-Apr-12 15:33N 50°07' W 001°12'1414.2
2015-Apr-12 14:33N 50°03' W 001°33'1514.9
2015-Apr-12 13:33N 49°59' W 001°55'1515.0
2015-Apr-12 12:33N 49°55' W 002°18'  
Track history (hours):
 
Tides and Currents Weather Stations Pressure Air Temp Water Temp Dewpoint Dewpoint Depression Visibility Wind Speed Wind Dir Waves Ship Positions

Gao Qiang

Last reported at 2015-Apr-17 10:24 UTC. Time now 2015-Apr-19 17:38 UTC.
Position N 49°54' W 003°12'.

Length 186 m; draft 10 m.

Type: Cargo ship. MMSI: 477611000.

Date/timePositionNaut miles runAvg speedWind from/ knotsBaromVisibWave heightAir tempDewpointWater temp
2015-Apr-17 10:24N 49°54' W 003°12'1513.9
2015-Apr-17 09:19N 49°60' W 002°51'9811.9
2015-Apr-17 01:07N 50°25' W 000°23'2214.3
2015-Apr-16 23:33N 50°30' E 000°11'1313.5
2015-Apr-16 22:33N 50°34' E 000°31'1312.6
2015-Apr-16 21:33N 50°40' E 000°49'1212.1
2015-Apr-16 20:33N 50°47' E 001°04'1311.9
2015-Apr-16 19:29N 50°55' E 001°20'1415.2
2015-Apr-16 18:34N 51°06' E 001°35'1615.8
2015-Apr-16 17:33N 51°18' E 001°51'1212.0
2015-Apr-16 16:33N 51°23' E 002°09'1313.3
2015-Apr-16 15:34N 51°23' E 002°30'1212.2
2015-Apr-16 14:34N 51°22' E 002°50'1211.6
2015-Apr-16 13:33N 51°24' E 003°08'1211.8
2015-Apr-16 12:34N 51°25' E 003°27'9 9.3
2015-Apr-16 11:33N 51°26' E 003°42'7 7.5
2015-Apr-16 10:34N 51°20' E 003°49'1 0.7
2015-Apr-16 09:33N 51°19' E 003°50'3 2.8
2015-Apr-16 08:33N 51°16' E 003°50'4 4.4
2015-Apr-16 07:33N 51°12' E 003°48'5 4.6
2015-Apr-16 06:33N 51°08' E 003°46'2 2.4
2015-Apr-16 05:34N 51°05' E 003°44'0 0.0
2015-Apr-16 04:33N 51°06' E 003°44'0 0.0
2015-Apr-16 03:33N 51°06' E 003°44'0 0.0
2015-Apr-16 02:30N 51°06' E 003°44'0 0.0
2015-Apr-16 01:30N 51°06' E 003°44'0 0.0
2015-Apr-16 00:33N 51°06' E 003°44'0 0.0
2015-Apr-15 23:27N 51°06' E 003°44'0 0.0
2015-Apr-15 22:18N 51°05' E 003°44'0 0.0
2015-Apr-15 21:33N 51°06' E 003°44'0 0.0
2015-Apr-15 20:32N 51°06' E 003°44'0 0.0
2015-Apr-15 19:31N 51°06' E 003°44'0 0.0
2015-Apr-15 18:31N 51°05' E 003°44'0 0.0
2015-Apr-15 17:31N 51°05' E 003°44'0 0.0
2015-Apr-15 16:28N 51°06' E 003°44'0 0.0
2015-Apr-15 15:33N 51°06' E 003°44'0 0.0
2015-Apr-15 14:30N 51°05' E 003°44'0 0.0
2015-Apr-15 13:32N 51°05' E 003°44'0 0.0
2015-Apr-15 12:32N 51°06' E 003°44'0 0.0
2015-Apr-15 11:33N 51°05' E 003°44'0 0.0
2015-Apr-15 10:31N 51°05' E 003°44'0 0.0
2015-Apr-15 09:31N 51°05' E 003°44'0 0.0
2015-Apr-15 08:32N 51°05' E 003°44'0 0.0
2015-Apr-15 07:31N 51°05' E 003°44'0 0.0
2015-Apr-15 06:32N 51°05' E 003°44'0 0.0
2015-Apr-15 05:23N 51°05' E 003°44'0 0.0
2015-Apr-15 04:32N 51°06' E 003°44'0 0.0
2015-Apr-15 03:32N 51°05' E 003°44'0 0.0
2015-Apr-15 02:32N 51°05' E 003°44'0 0.0
2015-Apr-15 01:27N 51°05' E 003°44'0 0.0
2015-Apr-15 00:32N 51°05' E 003°44'0 0.0
2015-Apr-14 23:28N 51°05' E 003°44'0 0.0
2015-Apr-14 22:33N 51°05' E 003°44'0 0.0
2015-Apr-14 21:32N 51°06' E 003°44'0 0.0
2015-Apr-14 20:32N 51°05' E 003°44'0 0.0
2015-Apr-14 19:26N 51°06' E 003°44'0 0.0
2015-Apr-14 18:32N 51°06' E 003°44'0 0.0
2015-Apr-14 17:25N 51°06' E 003°44'0 0.0
2015-Apr-14 16:34N 51°05' E 003°44'0 0.0
2015-Apr-14 15:33N 51°05' E 003°44'0 0.0
2015-Apr-14 14:34N 51°05' E 003°44'0 0.0
2015-Apr-14 13:32N 51°05' E 003°44'0 0.0
2015-Apr-14 12:33N 51°05' E 003°44'0 0.0
2015-Apr-14 11:32N 51°06' E 003°44'0 0.0
2015-Apr-14 10:31N 51°06' E 003°44'0 0.0
2015-Apr-14 09:27N 51°06' E 003°44'0 0.0
2015-Apr-14 08:33N 51°05' E 003°44'0 0.0
2015-Apr-14 07:34N 51°06' E 003°44'0 0.0
2015-Apr-14 06:33N 51°06' E 003°44'0 0.0
2015-Apr-14 05:32N 51°06' E 003°44'0 0.0
2015-Apr-14 04:32N 51°06' E 003°44'0 0.0
2015-Apr-14 03:32N 51°05' E 003°44'0 0.0
2015-Apr-14 02:32N 51°06' E 003°44'0 0.0
2015-Apr-14 01:33N 51°06' E 003°44'0 0.0
2015-Apr-14 00:30N 51°06' E 003°44'0 0.0
2015-Apr-13 23:21N 51°05' E 003°44'0 0.0
2015-Apr-13 22:28N 51°05' E 003°44'0 0.0
2015-Apr-13 21:26N 51°06' E 003°44'0 0.0
2015-Apr-13 20:32N 51°06' E 003°44'0 0.0
2015-Apr-13 19:30N 51°05' E 003°44'0 0.0
2015-Apr-13 18:31N 51°05' E 003°44'0 0.0
2015-Apr-13 17:33N 51°05' E 003°44'4 3.9
2015-Apr-13 16:33N 51°09' E 003°47'7 6.8
2015-Apr-13 15:34N 51°16' E 003°50'4 4.0
2015-Apr-13 14:34N 51°20' E 003°49'2 2.1
2015-Apr-13 13:33N 51°21' E 003°47'7 6.8
2015-Apr-13 12:33N 51°26' E 003°40'6 6.4
2015-Apr-13 11:33N 51°25' E 003°30'9 9.5
2015-Apr-13 10:33N 51°25' E 003°14'1110.6
2015-Apr-13 09:33N 51°23' E 002°58'10 9.6
2015-Apr-13 08:33N 51°22' E 002°42'4 3.7
2015-Apr-13 07:33N 51°22' E 002°36'2 2.1
2015-Apr-13 06:33N 51°22' E 002°33'3 3.4
2015-Apr-13 05:33N 51°21' E 002°28'1212.5
2015-Apr-13 04:33N 51°15' E 002°10'1211.9
2015-Apr-13 03:33N 51°10' E 001°53'1111.1
2015-Apr-13 02:33N 51°02' E 001°40'1010.5
2015-Apr-13 01:33N 50°55' E 001°29'1410.6
2015-Apr-13 00:13N 50°41' E 001°20'1011.4
2015-Apr-12 23:21N 50°35' E 001°09'2311.5
2015-Apr-12 21:19N 50°26' E 000°35'911.8
2015-Apr-12 20:33N 50°23' E 000°21'6212.3
2015-Apr-12 15:33N 50°07' W 001°12'1414.2
2015-Apr-12 14:33N 50°03' W 001°33'1514.9
2015-Apr-12 13:33N 49°59' W 001°55'1515.0
2015-Apr-12 12:33N 49°55' W 002°18'  

Dump ship's entire track history